Time;durP1;ratioP1;P1;durP2;ratioP2;P2;SDS_P1;SDS_P2;PMS_P1;PMS_P2;Temp;Humidity;BMP_temperature;BMP_pressure;BME280_temperature;BME280_humidity;BME280_pressure;Samples;Min_cycle;Max_cycle;Signal;HPM_P1;HPM_P2
2023/04/25 00:01:53;;;;;;;;;;;;;;;11.87;95.85;99533.69;5091234;28;20039;-57
2023/04/25 00:04:18;;;;;;;;;;;;;;;11.88;96.67;99537.22;5090388;28;19943;-57
2023/04/25 00:06:43;;;;;;;;;;;;;;;11.87;97.21;99535.50;5111267;28;19920;-57
2023/04/25 00:09:09;;;;;;;;;;;;;;;11.80;96.63;99534.03;5091065;28;19912;-57
2023/04/25 00:11:35;;;;;;;;;;;;;;;11.79;95.78;99532.31;5091324;28;20302;-58
2023/04/25 00:14:02;;;;;;;;;;;;;;;11.46;98.06;99534.66;5091082;28;19916;-57
2023/04/25 00:16:28;;;;;;;;;;;;;;;11.46;99.55;99534.66;5089548;28;19939;-58
2023/04/25 00:18:54;;;;;;;;;;;;;;;11.45;100.00;99542.72;5090537;28;19973;-57
2023/04/25 00:21:20;;;;;;;;;;;;;;;11.20;100.00;99502.94;5090516;28;19919;-58
2023/04/25 00:23:45;;;;;;;;;;;;;;;11.37;100.00;99544.81;5090756;28;19916;-57
2023/04/25 00:26:11;;;;;;;;;;;;;;;11.32;99.96;99547.69;5089683;28;19916;-58
2023/04/25 00:28:37;;;;;;;;;;;;;;;11.26;100.00;99547.06;5089382;28;19916;-57
2023/04/25 00:31:02;;;;;;;;;;;;;;;11.22;100.00;99538.34;5090215;28;19916;-57
2023/04/25 00:33:28;;;;;;;;;;;;;;;11.21;100.00;99538.41;5090521;28;19916;-57
2023/04/25 00:35:53;;;;;;;;;;;;;;;11.14;100.00;99542.25;5089305;28;19923;-57
2023/04/25 00:38:18;;;;;;;;;;;;;;;11.06;100.00;99539.06;5090337;28;19923;-58
2023/04/25 00:40:43;;;;;;;;;;;;;;;10.99;100.00;99542.94;5091145;28;19920;-57
2023/04/25 00:43:09;;;;;;;;;;;;;;;11.36;100.00;99540.44;5096390;28;20376;-58
2023/04/25 00:45:38;;;;;;;;;;;;;;;11.36;99.20;99545.75;5094374;28;19923;-58
2023/04/25 00:48:04;;;;;;;;;;;;;;;11.35;99.14;99547.53;5093859;28;19916;-58
2023/04/25 00:50:29;;;;;;;;;;;;;;;11.34;98.71;99540.50;5094288;28;19928;-58
2023/04/25 00:52:55;;;;;;;;;;;;;;;11.34;99.70;99528.97;5094345;28;20368;-58
2023/04/25 00:55:20;;;;;;;;;;;;;;;11.36;99.42;99533.31;5093583;28;19916;-58
2023/04/25 00:57:46;;;;;;;;;;;;;;;11.34;99.61;99527.19;5094566;28;19916;-57
2023/04/25 01:00:14;;;;;;;;;;;;;;;11.33;99.11;99516.59;5092791;28;20045;-57
2023/04/25 01:02:40;;;;;;;;;;;;;;;11.29;98.55;99520.31;5076003;28;20007;-57
2023/04/25 01:05:05;;;;;;;;;;;;;;;11.22;98.41;99524.19;5094344;28;19939;-58
2023/04/25 01:07:30;;;;;;;;;;;;;;;11.11;97.86;99527.31;5094383;28;20387;-58
2023/04/25 01:09:56;;;;;;;;;;;;;;;11.03;98.55;99526.78;5096442;28;20522;-58
2023/04/25 01:12:21;;;;;;;;;;;;;;;10.92;98.38;99528.16;5094320;28;20031;-58
2023/04/25 01:14:46;;;;;;;;;;;;;;;10.92;98.26;99530.81;5094460;28;19912;-58
2023/04/25 01:17:12;;;;;;;;;;;;;;;10.91;98.91;99529.06;5094022;28;20403;-58
2023/04/25 01:19:38;;;;;;;;;;;;;;;10.94;98.66;99518.31;5093055;28;19924;-58
2023/04/25 01:22:03;;;;;;;;;;;;;;;10.99;99.25;99518.97;5094107;28;19927;-58
2023/04/25 01:24:29;;;;;;;;;;;;;;;11.01;99.11;99517.09;5092851;28;19935;-58
2023/04/25 01:26:56;;;;;;;;;;;;;;;11.05;99.85;99518.72;5092707;28;19997;-58
2023/04/25 01:29:21;;;;;;;;;;;;;;;11.04;99.86;99519.63;5093315;28;19916;-58
2023/04/25 01:31:47;;;;;;;;;;;;;;;11.04;99.41;99519.63;5093027;28;19923;-58
2023/04/25 01:34:12;;;;;;;;;;;;;;;11.00;98.88;99526.91;5092270;28;19920;-58
2023/04/25 01:36:38;;;;;;;;;;;;;;;10.97;99.86;99527.00;5093017;28;19916;-58
2023/04/25 01:39:03;;;;;;;;;;;;;;;10.94;99.23;99534.28;5092832;28;19920;-58
2023/04/25 01:41:29;;;;;;;;;;;;;;;10.90;100.00;99522.88;5093943;28;20585;-58
2023/04/25 01:43:54;;;;;;;;;;;;;;;10.92;99.09;99530.81;5093036;28;19919;-57
2023/04/25 01:46:20;;;;;;;;;;;;;;;10.91;99.44;99531.72;5093862;28;20268;-58
2023/04/25 01:48:45;;;;;;;;;;;;;;;10.91;100.00;99529.94;5092137;28;19924;-57
2023/04/25 01:51:12;;;;;;;;;;;;;;;10.90;100.00;99522.88;5093986;28;19920;-58
2023/04/25 01:53:37;;;;;;;;;;;;;;;10.94;99.33;99515.66;5093201;28;19916;-58
2023/04/25 01:56:03;;;;;;;;;;;;;;;10.96;98.85;99511.97;5093481;28;19916;-58
2023/04/25 01:58:28;;;;;;;;;;;;;;;11.03;99.02;99515.25;5092763;28;19916;-58
2023/04/25 02:00:54;;;;;;;;;;;;;;;11.06;99.30;99515.13;5092942;28;19928;-58
2023/04/25 02:03:19;;;;;;;;;;;;;;;11.07;98.30;99516.88;5092239;28;20312;-58
2023/04/25 02:05:45;;;;;;;;;;;;;;;11.10;98.75;99514.06;5093233;28;19915;-58
2023/04/25 02:08:10;;;;;;;;;;;;;;;11.11;98.67;99515.78;5093166;28;20026;-58
2023/04/25 02:10:35;;;;;;;;;;;;;;;11.12;98.25;99517.53;5092681;28;20028;-58
2023/04/25 02:13:01;;;;;;;;;;;;;;;11.14;97.99;99515.66;5091318;28;19920;-58
2023/04/25 02:15:26;;;;;;;;;;;;;;;11.18;97.37;99506.63;5095895;28;19923;-58
2023/04/25 02:17:55;;;;;;;;;;;;;;;11.21;96.67;99506.47;5092061;28;19955;-58
2023/04/25 02:20:21;;;;;;;;;;;;;;;11.22;96.72;99508.22;5092698;28;20022;-58
2023/04/25 02:22:46;;;;;;;;;;;;;;;11.23;96.86;99502.84;5095312;28;19912;-58
2023/04/25 02:25:12;;;;;;;;;;;;;;;11.25;96.12;99514.25;5091835;28;19969;-58
2023/04/25 02:27:37;;;;;;;;;;;;;;;11.29;95.20;99509.66;5080254;28;20014;-58
2023/04/25 02:30:02;;;;;;;;;;;;;;;11.28;95.55;99513.28;5092398;28;19916;-58
2023/04/25 02:32:28;;;;;;;;;;;;;;;11.28;95.08;99514.16;5090968;28;19951;-58
2023/04/25 02:34:53;;;;;;;;;;;;;;;11.21;94.78;99507.34;5092727;28;19919;-58
2023/04/25 02:37:19;;;;;;;;;;;;;;;11.21;94.96;99511.81;5094722;28;19912;-58
2023/04/25 02:39:44;;;;;;;;;;;;;;;11.28;94.67;99505.28;5092134;28;19920;-58
2023/04/25 02:42:10;;;;;;;;;;;;;;;11.31;94.87;99503.34;5092089;28;19985;-58
2023/04/25 02:44:35;;;;;;;;;;;;;;;11.30;94.75;99500.75;5091164;28;19923;-58
2023/04/25 02:47:00;;;;;;;;;;;;;;;11.30;94.91;99500.75;5092425;28;19912;-58
2023/04/25 02:49:25;;;;;;;;;;;;;;;11.32;95.17;99499.75;5091436;28;20378;-58
2023/04/25 02:51:50;;;;;;;;;;;;;;;11.37;95.39;99496.88;5092168;28;20006;-58
2023/04/25 02:54:16;;;;;;;;;;;;;;;11.36;95.55;99495.16;5092229;28;19919;-58
2023/04/25 02:56:41;;;;;;;;;;;;;;;11.32;95.30;99493.56;5090935;28;19928;-58
2023/04/25 02:59:06;;;;;;;;;;;;;;;11.30;96.22;99484.78;5091900;28;19916;-58
2023/04/25 03:01:31;;;;;;;;;;;;;;;11.28;96.43;99486.66;5092424;28;20076;-58
2023/04/25 03:04:00;;;;;;;;;;;;;;;11.35;95.65;99488.13;5091279;28;20591;-58
2023/04/25 03:06:25;;;;;;;;;;;;;;;11.33;96.43;99484.66;5072526;28;19912;-58
2023/04/25 03:08:50;;;;;;;;;;;;;;;11.36;95.96;99473.84;5085519;28;20339;-57
2023/04/25 03:11:15;;;;;;;;;;;;;;;11.35;95.80;99478.31;5073005;28;19931;-58
2023/04/25 03:13:41;;;;;;;;;;;;;;;11.37;95.92;99472.91;5090828;28;19924;-58
2023/04/25 03:16:06;;;;;;;;;;;;;;;11.42;95.79;99481.56;5091889;28;19912;-58
2023/04/25 03:18:31;;;;;;;;;;;;;;;11.44;95.95;99474.38;5091792;28;19916;-58
2023/04/25 03:20:57;;;;;;;;;;;;;;;11.45;95.89;99468.97;5091835;28;19962;-58
2023/04/25 03:23:22;;;;;;;;;;;;;;;11.42;95.73;99473.56;5090157;28;19924;-57
2023/04/25 03:25:47;;;;;;;;;;;;;;;11.31;95.92;99465.22;5091513;28;19948;-58
2023/04/25 03:28:13;;;;;;;;;;;;;;;11.40;95.03;99459.50;5089521;28;19916;-57
2023/04/25 03:30:38;;;;;;;;;;;;;;;11.35;95.32;99462.34;5090409;28;19920;-57
2023/04/25 03:33:04;;;;;;;;;;;;;;;11.27;95.08;99459.16;5090419;28;19923;-58
2023/04/25 03:35:29;;;;;;;;;;;;;;;11.25;94.31;99455.69;5091049;28;19922;-58
2023/04/25 03:37:54;;;;;;;;;;;;;;;11.27;95.02;99460.94;5090504;28;20269;-58
2023/04/25 03:40:19;;;;;;;;;;;;;;;11.28;94.27;99446.72;5090812;28;20018;-58
2023/04/25 03:42:45;;;;;;;;;;;;;;;11.25;94.21;99455.69;5089975;28;19924;-58
2023/04/25 03:45:10;;;;;;;;;;;;;;;11.31;94.49;99454.56;5090304;28;19981;-57
2023/04/25 03:47:36;;;;;;;;;;;;;;;11.32;93.53;99450.94;5091470;28;19916;-58
2023/04/25 03:50:02;;;;;;;;;;;;;;;11.24;93.38;99453.09;5091427;28;19919;-58
2023/04/25 03:52:27;;;;;;;;;;;;;;;11.28;93.73;99454.69;5090647;28;20383;-58
2023/04/25 03:54:53;;;;;;;;;;;;;;;11.19;93.64;99455.09;5091077;28;19927;-57
2023/04/25 03:57:18;;;;;;;;;;;;;;;11.15;92.61;99453.50;5091024;28;19916;-58
2023/04/25 03:59:44;;;;;;;;;;;;;;;11.08;92.74;99455.59;5089036;28;19924;-57
2023/04/25 04:02:09;;;;;;;;;;;;;;;11.10;92.99;99455.50;5090379;28;19912;-57
2023/04/25 04:04:35;;;;;;;;;;;;;;;11.15;93.81;99448.19;5088636;28;20746;-57
2023/04/25 04:07:00;;;;;;;;;;;;;;;11.17;94.62;99447.19;5089818;28;20455;-58
2023/04/25 04:09:27;;;;;;;;;;;;;;;11.25;94.55;99445.03;5069980;28;20016;-57
2023/04/25 04:11:52;;;;;;;;;;;;;;;11.31;93.84;99438.59;5097194;28;19916;-58
2023/04/25 04:14:17;;;;;;;;;;;;;;;11.28;93.67;99444.06;5106698;28;19911;-57
2023/04/25 04:16:43;;;;;;;;;;;;;;;11.22;93.93;99445.19;5102122;28;19920;-58
2023/04/25 04:19:08;;;;;;;;;;;;;;;11.25;93.36;99450.34;5088780;28;20065;-58
2023/04/25 04:21:33;;;;;;;;;;;;;;;11.44;92.97;99456.63;5088827;28;19922;-58
2023/04/25 04:23:59;;;;;;;;;;;;;;;11.49;92.07;99456.41;5088589;28;19974;-58
2023/04/25 04:26:25;;;;;;;;;;;;;;;11.51;92.33;99454.53;5090152;28;19923;-58
2023/04/25 04:28:51;;;;;;;;;;;;;;;11.52;91.80;99453.59;5088770;28;19951;-58
2023/04/25 04:31:19;;;;;;;;;;;;;;;11.47;92.04;99450.28;5090556;28;19955;-57
2023/04/25 04:33:44;;;;;;;;;;;;;;;11.50;91.87;99453.66;5072351;28;20013;-58
2023/04/25 04:36:09;;;;;;;;;;;;;;;11.60;92.22;99451.44;5089826;28;20375;-58
2023/04/25 04:38:36;;;;;;;;;;;;;;;11.64;92.09;99458.41;5089822;28;20006;-57
2023/04/25 04:41:02;;;;;;;;;;;;;;;11.64;92.25;99459.28;5089475;28;20354;-58
2023/04/25 04:43:28;;;;;;;;;;;;;;;11.68;92.48;99459.97;5088682;28;19919;-58
2023/04/25 04:45:55;;;;;;;;;;;;;;;11.72;92.58;99462.47;5089394;28;20431;-57
2023/04/25 04:48:21;;;;;;;;;;;;;;;11.63;92.33;99467.31;5089088;28;19936;-58
2023/04/25 04:50:47;;;;;;;;;;;;;;;11.59;92.46;99466.59;5086912;28;20299;-58
2023/04/25 04:53:12;;;;;;;;;;;;;;;11.55;93.79;99469.44;5085834;28;19927;-57
2023/04/25 04:55:38;;;;;;;;;;;;;;;11.55;94.24;99469.44;5069628;28;20042;-58
2023/04/25 04:58:03;;;;;;;;;;;;;;;11.53;94.76;99476.66;5091695;28;19916;-58
2023/04/25 05:00:29;;;;;;;;;;;;;;;11.61;95.38;99475.34;5087113;28;19924;-58
2023/04/25 05:02:54;;;;;;;;;;;;;;;11.64;94.89;99474.38;5087605;28;20559;-58
2023/04/25 05:05:20;;;;;;;;;;;;;;;11.66;95.21;99483.19;5085871;28;19923;-57
2023/04/25 05:07:45;;;;;;;;;;;;;;;11.66;95.24;99477.84;5084479;28;20433;-58
2023/04/25 05:10:10;;;;;;;;;;;;;;;11.67;95.95;99479.56;5088539;28;19927;-57
2023/04/25 05:12:35;;;;;;;;;;;;;;;11.67;95.22;99487.56;5088227;28;20323;-59
2023/04/25 05:15:01;;;;;;;;;;;;;;;11.65;96.32;99487.63;5088378;28;19920;-57
2023/04/25 05:17:26;;;;;;;;;;;;;;;11.64;95.71;99490.38;5087491;28;19926;-57
2023/04/25 05:19:51;;;;;;;;;;;;;;;11.64;95.68;99493.03;5084932;28;19924;-58
2023/04/25 05:22:17;;;;;;;;;;;;;;;11.60;96.21;99488.72;5086730;28;19924;-58
2023/04/25 05:24:42;;;;;;;;;;;;;;;11.58;96.56;99491.47;5087213;28;19920;-58
2023/04/25 05:27:07;;;;;;;;;;;;;;;11.55;96.93;99488.94;5090197;28;19916;-57
2023/04/25 05:29:32;;;;;;;;;;;;;;;11.59;98.13;99495.00;5092324;28;20283;-57
2023/04/25 05:31:58;;;;;;;;;;;;;;;11.59;98.39;99500.34;5093161;28;19920;-57
2023/04/25 05:34:23;;;;;;;;;;;;;;;11.57;98.48;99500.41;5092758;28;20447;-58
2023/04/25 05:36:48;;;;;;;;;;;;;;;11.58;98.75;99506.59;5093384;28;19916;-57
2023/04/25 05:39:17;;;;;;;;;;;;;;;11.57;98.84;99505.72;5093288;28;19924;-57
2023/04/25 05:41:42;;;;;;;;;;;;;;;11.56;98.63;99503.13;5092752;28;20037;-57
2023/04/25 05:44:08;;;;;;;;;;;;;;;11.61;99.31;99509.13;5092936;28;19948;-57
2023/04/25 05:46:33;;;;;;;;;;;;;;;11.64;98.75;99514.34;5092997;28;20697;-58
2023/04/25 05:48:58;;;;;;;;;;;;;;;11.65;99.56;99510.75;5093997;28;20311;-58
2023/04/25 05:51:24;;;;;;;;;;;;;;;11.65;99.88;99505.41;5075419;28;20018;-58
2023/04/25 05:53:49;;;;;;;;;;;;;;;11.63;99.24;99516.13;5090623;28;19939;-58
2023/04/25 05:56:14;;;;;;;;;;;;;;;11.63;99.43;99516.13;5093120;28;20363;-58
2023/04/25 05:58:40;;;;;;;;;;;;;;;11.64;100.00;99514.34;5093568;28;19919;-57
2023/04/25 06:01:05;;;;;;;;;;;;;;;11.61;100.00;99517.97;5092148;28;19924;-58
2023/04/25 06:03:30;;;;;;;;;;;;;;;11.62;100.00;99513.50;5093217;28;19990;-58
2023/04/25 06:05:56;;;;;;;;;;;;;;;11.62;100.00;99521.50;5092270;28;20023;-57
2023/04/25 06:08:21;;;;;;;;;;;;;;;11.60;99.73;99526.03;5096033;28;19946;-58
2023/04/25 06:10:46;;;;;;;;;;;;;;;11.56;99.80;99519.13;5093010;28;19978;-58
2023/04/25 06:13:12;;;;;;;;;;;;;;;11.52;100.00;99528.16;5092605;28;19971;-57
2023/04/25 06:15:37;;;;;;;;;;;;;;;11.47;100.00;99522.19;5087913;28;19963;-58
2023/04/25 06:18:02;;;;;;;;;;;;;;;11.46;100.00;99529.31;5079953;28;19966;-58
2023/04/25 06:20:27;;;;;;;;;;;;;;;11.47;100.00;99525.72;5095583;28;19920;-57
2023/04/25 06:22:53;;;;;;;;;;;;;;;11.51;100.00;99531.78;5093083;28;19920;-56
2023/04/25 06:25:18;;;;;;;;;;;;;;;11.52;100.00;99528.16;5091606;28;20046;-57
2023/04/25 06:27:44;;;;;;;;;;;;;;;11.56;100.00;99529.78;5092756;28;19915;-57
2023/04/25 06:30:11;;;;;;;;;;;;;;;11.55;100.00;99536.00;5080956;28;19920;-58
2023/04/25 06:32:36;;;;;;;;;;;;;;;11.51;100.00;99534.44;5091579;28;20354;-58
2023/04/25 06:35:01;;;;;;;;;;;;;;;11.48;100.00;99532.75;5089776;28;19978;-57
2023/04/25 06:37:27;;;;;;;;;;;;;;;11.48;100.00;99537.25;5092134;28;20014;-57
2023/04/25 06:39:52;;;;;;;;;;;;;;;11.52;100.00;99539.69;5090818;28;20485;-58
2023/04/25 06:42:17;;;;;;;;;;;;;;;11.54;100.00;99539.63;5091058;28;19927;-57
2023/04/25 06:44:42;;;;;;;;;;;;;;;11.54;100.00;99547.63;5086108;28;19920;-57
2023/04/25 06:47:08;;;;;;;;;;;;;;;11.59;100.00;99548.28;5075358;28;19917;-58
2023/04/25 06:49:33;;;;;;;;;;;;;;;11.58;100.00;99546.56;5073051;28;19927;-57
2023/04/25 06:51:59;;;;;;;;;;;;;;;11.59;100.00;99551.81;5087613;28;19932;-58
2023/04/25 06:54:24;;;;;;;;;;;;;;;11.61;100.00;99554.41;5093010;28;19968;-57
2023/04/25 06:56:50;;;;;;;;;;;;;;;11.59;100.00;99564.25;5092615;28;19916;-57
2023/04/25 06:59:15;;;;;;;;;;;;;;;11.61;100.00;99555.25;5091583;28;19920;-57
2023/04/25 07:01:40;;;;;;;;;;;;;;;11.59;100.00;99561.59;5093440;28;19945;-57
2023/04/25 07:04:06;;;;;;;;;;;;;;;11.58;100.00;99565.22;5092389;28;19919;-57
2023/04/25 07:06:31;;;;;;;;;;;;;;;11.55;100.00;99570.63;5092280;28;19923;-57
2023/04/25 07:08:56;;;;;;;;;;;;;;;11.55;100.00;99570.63;5092379;28;20343;-57
2023/04/25 07:11:21;;;;;;;;;;;;;;;11.48;100.00;99569.19;5092050;28;19999;-57
2023/04/25 07:13:47;;;;;;;;;;;;;;;11.53;100.00;99577.84;5092424;28;19920;-57
2023/04/25 07:16:12;;;;;;;;;;;;;;;11.54;100.00;99582.25;5091367;28;19912;-57
2023/04/25 07:18:37;;;;;;;;;;;;;;;11.42;100.00;99580.09;5092167;28;20286;-58
2023/04/25 07:21:02;;;;;;;;;;;;;;;11.35;100.00;99582.16;5091955;28;19967;-57
2023/04/25 07:23:28;;;;;;;;;;;;;;;11.29;100.00;99587.75;5091028;28;20028;-57
2023/04/25 07:25:53;;;;;;;;;;;;;;;11.08;100.00;99593.09;5091716;28;20394;-57
2023/04/25 07:28:18;;;;;;;;;;;;;;;11.02;100.00;99596.03;5090997;28;19916;-57
2023/04/25 07:30:44;;;;;;;;;;;;;;;10.96;100.00;99598.91;5091105;28;20371;-58
2023/04/25 07:33:09;;;;;;;;;;;;;;;10.82;100.00;99596.84;5092849;28;19986;-58
2023/04/25 07:35:35;;;;;;;;;;;;;;;10.71;100.00;99595.53;5092363;28;19947;-58
2023/04/25 07:38:01;;;;;;;;;;;;;;;10.75;100.00;99600.66;5090300;28;19978;-58
2023/04/25 07:40:26;;;;;;;;;;;;;;;10.80;100.00;99612.00;5091028;28;20451;-58
2023/04/25 07:42:51;;;;;;;;;;;;;;;10.79;100.00;99614.72;5092554;28;20006;-57
2023/04/25 07:45:16;;;;;;;;;;;;;;;10.86;100.00;99616.19;5091162;28;19951;-57
2023/04/25 07:47:42;;;;;;;;;;;;;;;10.91;100.00;99624.84;5074400;28;19916;-57
2023/04/25 07:50:07;;;;;;;;;;;;;;;10.92;100.00;99616.84;5091446;28;19978;-57
2023/04/25 07:52:32;;;;;;;;;;;;;;;10.83;100.00;99629.59;5089995;28;19927;-58
2023/04/25 07:54:58;;;;;;;;;;;;;;;10.82;100.00;99635.88;5090550;28;19912;-57
2023/04/25 07:57:24;;;;;;;;;;;;;;;10.76;100.00;99634.31;5090880;28;19916;-57
2023/04/25 07:59:49;;;;;;;;;;;;;;;10.80;100.00;99638.59;5089923;28;19924;-58
2023/04/25 08:02:14;;;;;;;;;;;;;;;10.73;100.00;99650.41;5090484;28;19968;-58
2023/04/25 08:04:40;;;;;;;;;;;;;;;10.75;100.00;99655.66;5091413;28;19923;-57
2023/04/25 08:07:05;;;;;;;;;;;;;;;10.76;100.00;99657.41;5090987;28;20389;-58
2023/04/25 08:09:34;;;;;;;;;;;;;;;10.66;100.00;99658.69;5092077;28;19927;-58
2023/04/25 08:12:00;;;;;;;;;;;;;;;10.77;100.00;99664.44;5091819;28;19920;-57
2023/04/25 08:14:26;;;;;;;;;;;;;;;10.86;100.00;99659.63;5090344;28;20042;-57
2023/04/25 08:16:51;;;;;;;;;;;;;;;10.77;100.00;99675.09;5094213;28;19999;-57
2023/04/25 08:19:16;;;;;;;;;;;;;;;10.74;100.00;99675.22;5090839;28;20011;-58
2023/04/25 08:21:41;;;;;;;;;;;;;;;10.70;100.00;99679.78;5094209;28;19920;-58
2023/04/25 08:24:07;;;;;;;;;;;;;;;10.76;100.00;99678.69;5091001;28;19916;-57
2023/04/25 08:26:32;;;;;;;;;;;;;;;10.84;100.00;99689.91;5091185;28;20363;-57
2023/04/25 08:28:58;;;;;;;;;;;;;;;10.97;100.00;99696.47;5094703;28;19947;-57
2023/04/25 08:31:23;;;;;;;;;;;;;;;10.90;100.00;99697.63;5091086;28;20364;-57
2023/04/25 08:33:49;;;;;;;;;;;;;;;10.89;100.00;99701.22;5091303;28;19955;-57
2023/04/25 08:36:14;;;;;;;;;;;;;;;10.87;100.00;99703.06;5091166;28;19920;-57
2023/04/25 08:38:40;;;;;;;;;;;;;;;10.97;100.00;99704.44;5091428;28;19923;-56
2023/04/25 08:41:06;;;;;;;;;;;;;;;11.08;100.00;99707.56;5089886;28;19920;-57
2023/04/25 08:43:31;;;;;;;;;;;;;;;10.96;100.00;99710.69;5073656;28;19942;-57
2023/04/25 08:45:59;;;;;;;;;;;;;;;10.92;100.00;99714.41;5090594;28;20322;-58
2023/04/25 08:48:26;;;;;;;;;;;;;;;10.96;100.00;99718.66;5091382;28;19983;-57
2023/04/25 08:50:52;;;;;;;;;;;;;;;11.04;100.00;99722.75;5090784;28;20432;-57
2023/04/25 08:53:36;;;;;;;;;;;;;;;11.05;100.00;99723.66;5090257;28;19988;-57
2023/04/25 08:56:01;;;;;;;;;;;;;;;11.11;100.00;99729.59;5091324;28;19965;-57
2023/04/25 08:58:27;;;;;;;;;;;;;;;11.18;100.00;99731.09;5090395;28;20399;-57
2023/04/25 09:00:53;;;;;;;;;;;;;;;11.22;100.00;99731.84;5090720;28;19928;-58
2023/04/25 09:03:18;;;;;;;;;;;;;;;11.25;100.00;99737.03;5094203;28;19919;-57
2023/04/25 09:05:44;;;;;;;;;;;;;;;11.42;100.00;99734.56;5093349;28;20303;-57
2023/04/25 09:08:10;;;;;;;;;;;;;;;11.52;100.00;99741.25;5094829;28;20354;-57
2023/04/25 09:10:35;;;;;;;;;;;;;;;11.53;99.78;99738.50;5094771;28;20003;-57
2023/04/25 09:13:12;;;;;;;;;;;;;;;11.55;98.45;99746.44;5094632;28;19938;-57
2023/04/25 09:15:51;;;;;;;;;;;;;;;11.48;98.81;99753.81;5092532;28;19919;-57
2023/04/25 09:18:22;;;;;;;;;;;;;;;11.50;99.60;99756.41;5094587;28;20427;-57
2023/04/25 09:20:47;;;;;;;;;;;;;;;11.47;98.01;99759.19;5094002;28;19928;-57
2023/04/25 09:23:14;;;;;;;;;;;;;;;11.48;98.51;99766.28;5094713;28;19944;-57
2023/04/25 09:25:39;;;;;;;;;;;;;;;11.41;97.45;99764.78;5093651;28;19920;-57
2023/04/25 09:28:05;;;;;;;;;;;;;;;11.36;98.32;99769.44;5094144;28;20433;-57
2023/04/25 09:30:34;;;;;;;;;;;;;;;11.35;99.07;99776.53;5094258;28;20383;-57
2023/04/25 09:33:07;;;;;;;;;;;;;;;11.28;99.21;99780.38;5093112;28;19920;-57
2023/04/25 09:35:37;;;;;;;;;;;;;;;11.16;98.67;99774.66;5093011;28;19920;-56
2023/04/25 09:38:06;;;;;;;;;;;;;;;11.28;99.08;99779.50;5095600;28;19970;-57
2023/04/25 09:40:31;;;;;;;;;;;;;;;11.28;99.25;99783.06;5093967;28;20011;-57
2023/04/25 09:42:58;;;;;;;;;;;;;;;11.44;99.05;99784.19;5094296;28;20003;-57
2023/04/25 09:45:24;;;;;;;;;;;;;;;11.58;99.85;99783.63;5094414;28;19916;-57
2023/04/25 09:47:49;;;;;;;;;;;;;;;11.64;99.57;99789.63;5092550;28;19939;-57
2023/04/25 09:50:16;;;;;;;;;;;;;;;11.68;99.57;99787.66;5094380;28;19916;-57
2023/04/25 09:52:41;;;;;;;;;;;;;;;11.49;98.79;99802.63;5093872;28;19951;-58
2023/04/25 09:55:06;;;;;;;;;;;;;;;11.39;98.93;99790.59;5094307;28;20299;-57
2023/04/25 09:57:32;;;;;;;;;;;;;;;11.45;98.84;99798.38;5094372;28;20007;-57
2023/04/25 10:00:00;;;;;;;;;;;;;;;11.58;100.00;99795.13;5094410;28;19920;-58
2023/04/25 10:02:26;;;;;;;;;;;;;;;11.63;98.87;99803.84;5093696;28;19927;-57
2023/04/25 10:04:53;;;;;;;;;;;;;;;11.45;98.87;99793.03;5093660;28;19920;-57
2023/04/25 10:07:21;;;;;;;;;;;;;;;11.53;98.81;99797.13;5094112;28;19935;-57
2023/04/25 10:09:47;;;;;;;;;;;;;;;11.76;99.33;99804.22;5091954;28;20361;-57
2023/04/25 10:12:13;;;;;;;;;;;;;;;12.02;100.00;99796.03;5093077;28;19919;-57
2023/04/25 10:14:38;;;;;;;;;;;;;;;12.13;99.44;99803.56;5091542;28;20019;-57
2023/04/25 10:17:03;;;;;;;;;;;;;;;12.05;97.30;99808.34;5093420;28;19912;-57
2023/04/25 10:19:29;;;;;;;;;;;;;;;11.78;97.51;99813.00;5096698;28;19916;-57
2023/04/25 10:22:13;;;;;;;;;;;;;;;11.70;96.14;99816.00;5092500;28;19916;-57
2023/04/25 10:24:39;;;;;;;;;;;;;;;11.25;94.59;99819.56;5093391;28;19927;-57
2023/04/25 10:27:05;;;;;;;;;;;;;;;10.99;94.80;99825.88;5095255;28;19966;-57
2023/04/25 10:29:30;;;;;;;;;;;;;;;10.86;96.30;99824.59;5095787;28;20644;-57
2023/04/25 10:31:56;;;;;;;;;;;;;;;10.77;97.22;99824.06;5093491;28;20011;-57
2023/04/25 10:34:38;;;;;;;;;;;;;;;10.79;96.94;99832.88;5092144;28;20281;-57
2023/04/25 10:37:03;;;;;;;;;;;;;;;10.72;98.32;99823.34;5091988;28;19920;-57
2023/04/25 10:39:28;;;;;;;;;;;;;;;10.92;98.49;99812.84;5092068;28;19942;-58
2023/04/25 10:41:54;;;;;;;;;;;;;;;11.00;99.01;99821.41;5093346;28;19920;-58
2023/04/25 10:44:20;;;;;;;;;;;;;;;10.97;98.01;99824.19;5092674;28;19915;-57
2023/04/25 10:46:48;;;;;;;;;;;;;;;10.97;98.62;99830.38;5092425;28;20443;-57
2023/04/25 10:49:30;;;;;;;;;;;;;;;10.87;98.08;99830.78;5091196;28;19951;-57
2023/04/25 10:52:14;;;;;;;;;;;;;;;10.63;97.88;99830.75;5092876;28;19943;-57
2023/04/25 10:54:42;;;;;;;;;;;;;;;10.68;98.97;99840.34;5091050;28;19952;-57
2023/04/25 10:57:07;;;;;;;;;;;;;;;10.60;99.52;99843.28;5092787;28;19965;-57
2023/04/25 10:59:33;;;;;;;;;;;;;;;10.72;98.23;99837.53;5090870;28;19920;-57
2023/04/25 11:01:58;;;;;;;;;;;;;;;10.94;98.08;99835.81;5091482;28;20062;-57
2023/04/25 11:04:29;;;;;;;;;;;;;;;11.03;98.78;99832.81;5091486;28;19920;-57
2023/04/25 11:07:20;;;;;;;;;;;;;;;10.83;96.84;99839.78;5092705;28;19922;-57
2023/04/25 11:09:45;;;;;;;;;;;;;;;11.04;96.40;99836.34;5089945;28;19920;-57
2023/04/25 11:12:12;;;;;;;;;;;;;;;11.15;96.58;99836.81;5092251;28;19923;-57
2023/04/25 11:14:37;;;;;;;;;;;;;;;11.41;96.79;99831.38;5091328;28;19978;-57
2023/04/25 11:17:03;;;;;;;;;;;;;;;11.54;94.51;99835.28;5092633;28;19970;-57
2023/04/25 11:19:29;;;;;;;;;;;;;;;11.48;96.05;99832.88;5091469;28;19920;-57
2023/04/25 11:22:03;;;;;;;;;;;;;;;11.88;96.70;99835.69;5092120;28;19916;-57
2023/04/25 11:24:32;;;;;;;;;;;;;;;12.42;94.81;99830.72;5091329;28;19955;-57
2023/04/25 11:26:58;;;;;;;;;;;;;;;12.63;92.53;99827.13;5090951;28;19938;-57
2023/04/25 11:29:27;;;;;;;;;;;;;;;12.91;93.80;99822.31;5091724;28;19916;-57
2023/04/25 11:31:53;;;;;;;;;;;;;;;13.34;91.70;99826.59;5091421;28;19919;-57
2023/04/25 11:34:18;;;;;;;;;;;;;;;13.92;89.40;99830.84;5072985;28;19986;-57
2023/04/25 11:36:44;;;;;;;;;;;;;;;14.13;87.92;99828.94;5091954;28;19923;-57
2023/04/25 11:39:10;;;;;;;;;;;;;;;14.37;84.57;99822.38;5090531;28;19942;-57
2023/04/25 11:41:37;;;;;;;;;;;;;;;14.04;81.95;99830.25;5091620;28;19970;-57
2023/04/25 11:44:02;;;;;;;;;;;;;;;14.40;82.83;99828.44;5090472;28;19920;-56
2023/04/25 11:46:27;;;;;;;;;;;;;;;15.21;80.14;99833.06;5091016;28;20441;-57
2023/04/25 11:48:55;;;;;;;;;;;;;;;15.80;79.94;99823.47;5090808;28;20349;-57
2023/04/25 11:51:20;;;;;;;;;;;;;;;16.53;71.88;99824.56;5089191;28;20375;-56
2023/04/25 11:53:46;;;;;;;;;;;;;;;16.78;67.56;99827.50;5090265;28;19924;-57
2023/04/25 11:56:12;;;;;;;;;;;;;;;17.23;68.00;99821.13;5090209;28;20384;-57
2023/04/25 11:58:55;;;;;;;;;;;;;;;17.42;65.00;99822.56;5089573;28;19916;-58
2023/04/25 12:01:31;;;;;;;;;;;;;;;16.70;64.51;99829.81;5090479;28;19924;-59
2023/04/25 12:04:10;;;;;;;;;;;;;;;16.22;67.64;99830.00;5090030;28;19923;-57
2023/04/25 12:06:39;;;;;;;;;;;;;;;16.85;67.93;99831.56;5073848;28;20073;-58
2023/04/25 12:09:06;;;;;;;;;;;;;;;16.75;66.39;99835.75;5069869;28;19916;-58
2023/04/25 12:11:32;;;;;;;;;;;;;;;16.53;66.81;99841.56;5089838;28;19926;-58
2023/04/25 12:14:04;;;;;;;;;;;;;;;16.62;68.82;99856.25;5090332;28;20003;-57
2023/04/25 12:16:40;;;;;;;;;;;;;;;16.29;71.86;99864.44;5092254;28;20686;-55
2023/04/25 12:19:05;;;;;;;;;;;;;;;15.13;71.47;99879.03;5088130;28;20328;-56
2023/04/25 12:21:32;;;;;;;;;;;;;;;14.39;74.17;99885.59;5089567;28;19916;-56
2023/04/25 12:24:07;;;;;;;;;;;;;;;13.79;77.98;99891.19;5089988;28;19923;-56
2023/04/25 12:26:45;;;;;;;;;;;;;;;13.27;80.26;99902.59;5089318;28;19924;-57
2023/04/25 12:29:30;;;;;;;;;;;;;;;12.83;83.32;99899.16;5075508;28;19977;-56
2023/04/25 12:31:55;;;;;;;;;;;;;;;12.44;84.17;99892.88;5089881;28;19948;-57
2023/04/25 12:34:21;;;;;;;;;;;;;;;12.12;86.14;99889.81;5091923;28;19958;-57
2023/04/25 12:36:47;;;;;;;;;;;;;;;11.98;86.60;99894.84;5091519;28;19926;-58
2023/04/25 12:39:16;;;;;;;;;;;;;;;11.95;87.47;99893.16;5089780;28;20007;-58